createdAt,value
2023-05-04T00:02:30.125Z,0
2023-05-04T00:06:33.506Z,0
2023-05-04T00:12:37.727Z,0
2023-05-04T00:16:41.110Z,0
2023-05-04T00:20:43.799Z,0
2023-05-04T00:22:45.473Z,0
2023-05-04T00:26:48.637Z,0
2023-05-04T00:28:49.959Z,0
2023-05-04T00:30:51.504Z,0
2023-05-04T00:32:52.901Z,0
2023-05-04T00:38:56.777Z,0
2023-05-04T00:45:01.020Z,0
2023-05-04T00:49:03.821Z,0
2023-05-04T00:55:08.579Z,0
2023-05-04T00:59:12.199Z,0
2023-05-04T01:01:13.316Z,0
2023-05-04T01:05:16.678Z,0
2023-05-04T01:09:20.440Z,0
2023-05-04T01:11:22.411Z,0
2023-05-04T01:15:25.754Z,0
2023-05-04T01:21:30.624Z,0
2023-05-04T01:27:36.169Z,0
2023-05-04T01:31:39.155Z,0
2023-05-04T01:37:43.266Z,0
2023-05-04T01:41:45.823Z,0
2023-05-04T01:43:47.652Z,0
2023-05-04T01:47:51.125Z,0
2023-05-04T01:51:54.970Z,0
2023-05-04T01:53:56.376Z,0
2023-05-04T01:57:59.516Z,0.14
2023-05-04T02:04:04.580Z,0
2023-05-04T02:10:09.319Z,0
2023-05-04T02:14:11.399Z,0
2023-05-04T02:20:16.293Z,0
2023-05-04T02:24:19.476Z,0
2023-05-04T02:26:20.717Z,0
2023-05-04T02:30:23.947Z,0
2023-05-04T02:34:27.860Z,0
2023-05-04T02:36:29.523Z,0
2023-05-04T02:40:32.383Z,0
2023-05-04T02:46:36.332Z,0
2023-05-04T02:50:38.422Z,0
2023-05-04T02:52:39.957Z,0
2023-05-04T02:56:43.190Z,0
2023-05-04T03:02:47.850Z,0
2023-05-04T03:06:49.962Z,0
2023-05-04T03:08:51.910Z,0
2023-05-04T03:12:54.974Z,0
2023-05-04T03:16:57.195Z,0
2023-05-04T03:18:58.336Z,0
2023-05-04T03:23:01.140Z,0
2023-05-04T03:29:05.726Z,0
2023-05-04T03:33:09.181Z,0
2023-05-04T03:35:11.099Z,0
2023-05-04T03:39:14.423Z,0
2023-05-04T03:45:20.153Z,0
2023-05-04T03:47:21.474Z,0
2023-05-04T03:49:31.206Z,0
2023-05-04T03:51:24.910Z,0
2023-05-04T03:55:28.399Z,0
2023-05-04T03:59:29.876Z,0
2023-05-04T04:01:31.079Z,0
2023-05-04T04:03:41.722Z,0
2023-05-04T04:05:33.656Z,0
2023-05-04T04:11:38.751Z,0
2023-05-04T04:15:42.802Z,0
2023-05-04T04:17:43.355Z,0
2023-05-04T04:21:47.071Z,0
2023-05-04T04:27:51.985Z,0
2023-05-04T04:31:55.556Z,0
2023-05-04T04:33:57.181Z,0
2023-05-04T04:38:03.018Z,0
2023-05-04T04:42:03.574Z,0
2023-05-04T04:44:05.595Z,0
2023-05-04T04:48:08.356Z,0
2023-05-04T04:54:12.338Z,0
2023-05-04T04:58:15.891Z,0
2023-05-04T05:00:17.715Z,0
2023-05-04T05:04:20.925Z,0
2023-05-04T05:10:25.568Z,0
2023-05-04T05:14:28.269Z,1.123
2023-05-04T05:15:12.117Z,1.965
2023-05-04T05:21:17.089Z,0
2023-05-04T05:25:20.039Z,2.246
2023-05-04T05:27:21.223Z,1.404
2023-05-04T05:31:24.349Z,1.123
2023-05-04T05:37:28.703Z,0
2023-05-04T05:41:30.993Z,1.263
2023-05-04T05:43:32.903Z,0
2023-05-04T05:47:35.759Z,0
2023-05-04T05:53:39.889Z,0
2023-05-04T05:57:42.764Z,0
2023-05-04T06:03:47.443Z,0
2023-05-04T06:07:50.380Z,0.14
2023-05-04T06:09:51.690Z,0
2023-05-04T06:13:53.956Z,2.386
2023-05-04T06:19:59.179Z,0
2023-05-04T06:24:01.947Z,1.263
2023-05-04T06:26:03.417Z,0.14
2023-05-04T06:30:06.616Z,0
2023-05-04T06:36:09.986Z,1.825
2023-05-04T06:40:12.955Z,0
2023-05-04T06:42:14.674Z,0.14
2023-05-04T06:46:17.320Z,0.982
2023-05-04T06:50:19.192Z,1.544
2023-05-04T06:52:20.642Z,0.842
2023-05-04T06:56:22.974Z,0.28
2023-05-04T07:02:27.242Z,0.14
2023-05-04T07:08:30.482Z,1.544
2023-05-04T07:12:33.773Z,0.28
2023-05-04T07:18:38.621Z,0
2023-05-04T07:22:41.477Z,0.421
2023-05-04T07:24:42.477Z,0
2023-05-04T07:28:45.248Z,0.702
2023-05-04T07:32:48.551Z,0.421
2023-05-04T07:34:49.954Z,0.421
2023-05-04T07:38:52.150Z,0.561
2023-05-04T07:44:56.125Z,0.982
2023-05-04T07:48:58.966Z,0.982
2023-05-04T07:50:59.875Z,2.527
2023-05-04T07:55:01.713Z,3.931
2023-05-04T08:01:05.589Z,7.16
2023-05-04T08:07:09.256Z,5.616
2023-05-04T08:11:18.978Z,6.177
2023-05-04T08:17:15.990Z,6.879
2023-05-04T08:21:18.427Z,4.914
2023-05-04T08:23:19.655Z,6.879
2023-05-04T08:27:22.324Z,6.458
2023-05-04T08:31:24.419Z,4.914
2023-05-04T08:33:25.640Z,7.3
2023-05-04T08:37:28.514Z,4.773
2023-05-04T08:43:33.216Z,6.739
2023-05-04T08:49:37.694Z,10.81
2023-05-04T08:53:40.466Z,7.581
2023-05-04T08:59:45.351Z,11.232
2023-05-04T09:03:48.737Z,6.879
2023-05-04T09:05:50.055Z,3.931
2023-05-04T09:09:52.830Z,8.564
2023-05-04T09:13:55.343Z,6.739
2023-05-04T09:15:56.694Z,9.266
2023-05-04T09:19:59.037Z,4.352
2023-05-04T09:26:02.704Z,9.687
2023-05-04T09:30:04.807Z,7.16
2023-05-04T09:32:05.610Z,10.53
2023-05-04T09:36:07.556Z,10.951
2023-05-04T09:42:11.898Z,10.249
2023-05-04T09:46:14.334Z,4.914
2023-05-04T09:48:15.171Z,13.197
2023-05-04T09:52:18.597Z,8.424
2023-05-04T09:56:21.132Z,8.704
2023-05-04T09:58:22.234Z,8.564
2023-05-04T10:02:24.862Z,4.773
2023-05-04T10:06:27.795Z,9.406
2023-05-04T10:08:28.848Z,7.02
2023-05-04T10:12:32.681Z,6.879
2023-05-04T10:14:34.253Z,5.054
2023-05-04T10:16:36.116Z,5.896
2023-05-04T10:18:37.329Z,4.633
2023-05-04T10:24:40.898Z,5.756
2023-05-04T10:26:42.454Z,7.441
2023-05-04T10:30:45.045Z,6.318
2023-05-04T10:34:47.826Z,8.424
2023-05-04T10:40:51.586Z,5.475
2023-05-04T10:44:53.909Z,10.108
2023-05-04T10:46:55.503Z,8.283
2023-05-04T10:50:57.322Z,6.458
2023-05-04T10:54:59.844Z,4.914
2023-05-04T10:57:01.616Z,5.194
2023-05-04T11:01:03.241Z,5.475
2023-05-04T11:07:07.584Z,1.825
2023-05-04T11:11:10.188Z,6.879
2023-05-04T11:13:11.574Z,3.369
2023-05-04T11:23:18.326Z,8.424
2023-05-04T11:27:21.521Z,0
2023-05-04T11:29:22.323Z,9.968
2023-05-04T11:33:24.683Z,4.773
2023-05-04T11:37:27.768Z,5.475
2023-05-04T11:39:29.362Z,4.071
2023-05-04T11:43:32.583Z,4.352
2023-05-04T11:45:33.573Z,3.65
2023-05-04T11:49:36.322Z,3.65
2023-05-04T11:53:39.446Z,8.002
2023-05-04T11:55:40.998Z,4.773
2023-05-04T11:59:43.833Z,6.177
2023-05-04T12:00:27.496Z,9.266
2023-05-04T12:06:30.560Z,9.126
2023-05-04T12:10:33.598Z,6.037
2023-05-04T12:14:46.353Z,1.263
2023-05-04T12:16:37.277Z,5.194
2023-05-04T12:20:39.889Z,7.16
2023-05-04T12:22:40.906Z,6.458
2023-05-04T12:26:44.587Z,7.441
2023-05-04T12:30:47.663Z,6.037
2023-05-04T12:32:49.339Z,4.773
2023-05-04T12:36:51.732Z,5.335
2023-05-04T12:42:56.276Z,7.581
2023-05-04T12:46:58.486Z,4.914
2023-05-04T12:49:00.118Z,0.14
2023-05-04T12:53:02.650Z,5.194
2023-05-04T12:59:06.880Z,7.862
2023-05-04T13:03:09.583Z,3.79
2023-05-04T13:05:11.265Z,11.653
2023-05-04T13:09:14.406Z,4.773
2023-05-04T13:13:16.755Z,10.951
2023-05-04T13:15:18.116Z,2.667
2023-05-04T13:19:20.754Z,3.229
2023-05-04T13:25:24.514Z,8.424
2023-05-04T13:29:26.568Z,9.126
2023-05-04T13:31:28.073Z,4.071
2023-05-04T13:35:31.147Z,6.318
2023-05-04T13:41:35.886Z,8.985
2023-05-04T13:45:39.115Z,4.633
2023-05-04T13:47:40.731Z,0.702
2023-05-04T13:51:42.965Z,5.756
2023-05-04T13:57:47.359Z,4.212
2023-05-04T14:01:49.827Z,5.335
2023-05-04T14:03:51.034Z,3.229
2023-05-04T14:07:53.411Z,6.318
2023-05-04T14:11:56.864Z,10.53
2023-05-04T14:13:57.622Z,9.406
2023-05-04T14:15:58.946Z,4.352
2023-05-04T14:18:00.050Z,5.475
2023-05-04T14:24:04.076Z,7.16
2023-05-04T14:26:05.222Z,6.318
2023-05-04T14:30:07.828Z,4.352
2023-05-04T14:34:10.479Z,4.071
2023-05-04T14:40:13.698Z,9.406
2023-05-04T14:44:15.982Z,4.773
2023-05-04T14:46:16.961Z,8.283
2023-05-04T14:50:20.102Z,10.951
2023-05-04T14:54:22.135Z,7.722
2023-05-04T14:56:23.509Z,8.002
2023-05-04T15:00:26.337Z,6.598
2023-05-04T15:06:31.004Z,6.879
2023-05-04T15:10:34.326Z,6.739
2023-05-04T15:12:35.335Z,5.756
2023-05-04T15:16:38.006Z,9.266
2023-05-04T15:22:42.029Z,6.177
2023-05-04T15:26:44.684Z,0.842
2023-05-04T15:28:45.857Z,5.054
2023-05-04T15:32:47.571Z,7.581
2023-05-04T15:36:50.636Z,5.194
2023-05-04T15:38:52.097Z,7.3
2023-05-04T15:42:55.385Z,8.845
2023-05-04T15:46:57.664Z,4.492
2023-05-04T15:48:58.671Z,6.879
2023-05-04T15:53:00.572Z,7.862
2023-05-04T15:55:09.392Z,4.492
2023-05-04T15:57:03.311Z,3.51
2023-05-04T15:59:05.116Z,1.263
2023-05-04T16:05:09.819Z,7.16
2023-05-04T16:11:13.902Z,10.108
2023-05-04T16:15:16.969Z,5.616
2023-05-04T16:21:20.367Z,7.02
2023-05-04T16:25:23.129Z,5.896
2023-05-04T16:27:24.206Z,2.948
2023-05-04T16:31:27.189Z,6.037
2023-05-04T16:35:28.994Z,5.756
2023-05-04T16:37:29.867Z,3.79
2023-05-04T16:41:32.292Z,3.931
2023-05-04T16:47:37.331Z,3.79
2023-05-04T16:51:40.201Z,5.054
2023-05-04T16:53:41.599Z,5.475
2023-05-04T16:57:44.558Z,5.194
2023-05-04T17:03:48.913Z,6.458
2023-05-04T17:07:51.260Z,8.143
2023-05-04T17:09:53.748Z,3.79
2023-05-04T17:13:56.330Z,6.879
2023-05-04T17:17:59.541Z,4.212
2023-05-04T17:20:00.686Z,4.914
2023-05-04T17:24:02.568Z,5.475
2023-05-04T17:30:05.650Z,4.071
2023-05-04T17:34:07.478Z,4.914
2023-05-04T17:36:08.782Z,9.266
2023-05-04T17:40:11.323Z,4.773
2023-05-04T17:46:15.453Z,4.492
2023-05-04T17:52:19.664Z,6.037
2023-05-04T17:56:22.893Z,6.177
2023-05-04T18:02:26.688Z,4.773
2023-05-04T18:06:29.249Z,4.071
2023-05-04T18:08:30.667Z,4.773
2023-05-04T18:12:34.066Z,5.475
2023-05-04T18:16:36.060Z,4.773
2023-05-04T18:18:36.847Z,5.335
2023-05-04T18:22:39.720Z,4.773
2023-05-04T18:28:44.640Z,4.071
2023-05-04T18:34:48.975Z,3.369
2023-05-04T18:38:52.469Z,4.352
2023-05-04T18:44:57.218Z,6.739
2023-05-04T18:45:40.970Z,5.616
2023-05-04T18:49:43.560Z,4.633
2023-05-04T18:53:46.444Z,5.896
2023-05-04T18:55:47.527Z,4.492
2023-05-04T18:59:49.756Z,7.441
2023-05-04T19:05:53.295Z,5.194
2023-05-04T19:09:55.795Z,3.51
2023-05-04T19:11:57.194Z,5.194
2023-05-04T19:16:00.190Z,2.808
2023-05-04T19:22:03.622Z,5.054
2023-05-04T19:26:05.813Z,3.79
2023-05-04T19:28:06.787Z,2.808
2023-05-04T19:32:20.218Z,1.544
2023-05-04T19:36:13.188Z,4.352
2023-05-04T19:38:14.436Z,0.561
2023-05-04T19:42:17.598Z,2.527
2023-05-04T19:46:20.468Z,3.229
2023-05-04T19:48:22.211Z,4.071
2023-05-04T19:52:25.141Z,1.825
2023-05-04T19:54:26.982Z,0.842
2023-05-04T19:58:30.023Z,2.246
2023-05-04T20:04:34.546Z,0.14
2023-05-04T20:10:39.054Z,2.106
2023-05-04T20:14:41.306Z,0
2023-05-04T20:20:45.355Z,3.229
2023-05-04T20:24:48.285Z,1.825
2023-05-04T20:28:51.432Z,0
2023-05-04T20:30:52.533Z,0
2023-05-04T20:34:55.296Z,0
2023-05-04T20:36:56.455Z,0
2023-05-04T20:40:59.617Z,0
2023-05-04T20:47:05.126Z,0
2023-05-04T20:49:06.383Z,0
2023-05-04T20:53:08.801Z,0
2023-05-04T20:57:11.540Z,0
2023-05-04T21:03:15.380Z,0
2023-05-04T21:07:18.692Z,0
2023-05-04T21:09:19.376Z,0
2023-05-04T21:13:22.275Z,0
2023-05-04T21:17:25.367Z,1.544
2023-05-04T21:19:26.574Z,0.14
2023-05-04T21:23:29.108Z,0
2023-05-04T21:29:33.579Z,0
2023-05-04T21:33:36.760Z,0
2023-05-04T21:35:38.355Z,0
2023-05-04T21:39:41.481Z,0.421
2023-05-04T21:45:44.826Z,0
2023-05-04T21:49:49.349Z,0.842
2023-05-04T21:51:50.034Z,0
2023-05-04T21:55:52.551Z,0
2023-05-04T21:59:54.660Z,0
2023-05-04T22:01:55.901Z,0
2023-05-04T22:05:59.259Z,0
2023-05-04T22:12:04.805Z,0
2023-05-04T22:16:07.784Z,0
2023-05-04T22:18:09.233Z,0
2023-05-04T22:22:12.601Z,0
2023-05-04T22:28:17.197Z,0
2023-05-04T22:32:20.269Z,0
2023-05-04T22:34:21.771Z,0
2023-05-04T22:38:25.440Z,0
2023-05-04T22:42:27.879Z,0
2023-05-04T22:44:29.720Z,0
2023-05-04T22:48:32.960Z,0
2023-05-04T22:52:35.821Z,0
2023-05-04T23:00:40.824Z,0
2023-05-04T23:02:41.844Z,0
2023-05-04T23:06:45.491Z,1.263
2023-05-04T23:10:48.318Z,0.702
2023-05-04T23:16:52.625Z,0
2023-05-04T23:20:55.448Z,0
2023-05-04T23:22:57.238Z,0
2023-05-04T23:27:00.805Z,0.702
2023-05-04T23:31:03.332Z,0
2023-05-04T23:33:04.612Z,0.702
2023-05-04T23:37:06.930Z,0
2023-05-04T23:43:11.235Z,0
2023-05-04T23:49:16.548Z,0
2023-05-04T23:53:19.613Z,0
2023-05-04T23:59:23.095Z,0
